Time;durP1;ratioP1;P1;durP2;ratioP2;P2;SDS_P1;SDS_P2;PMS_P1;PMS_P2;Temp;Humidity;BMP_temperature;BMP_pressure;BME280_temperature;BME280_humidity;BME280_pressure;Samples;Min_cycle;Max_cycle;Signal;HPM_P1;HPM_P2
2021/05/22 00:00:55;;;;;;;3.80;0.90;;;;;;;14.81;47.85;99182.84;126628;1101;102953;-81
2021/05/22 00:03:44;;;;;;;3.57;1.03;;;;;;;14.79;48.23;99196.08;126683;1101;102930;-81
2021/05/22 00:06:32;;;;;;;4.23;1.13;;;;;;;14.78;47.89;99183.06;126397;1101;102073;-81
2021/05/22 00:09:20;;;;;;;5.50;1.00;;;;;;;14.77;48.20;99178.75;126268;1101;103158;-81
2021/05/22 00:12:08;;;;;;;1.63;1.03;;;;;;;14.78;48.19;99183.06;126541;1101;103080;-81
2021/05/22 00:14:56;;;;;;;1.47;1.00;;;;;;;14.79;48.56;99189.98;126625;1101;102862;-80
2021/05/22 00:17:44;;;;;;;;;;;;;;;14.75;48.38;99163.11;126612;1101;102984;-80
2021/05/22 00:20:32;;;;;;;2.48;0.80;;;;;;;14.73;48.92;99174.66;126548;1101;101849;-80
2021/05/22 00:23:19;;;;;;;1.93;0.90;;;;;;;14.69;49.04;99178.40;126581;1101;102969;-80
2021/05/22 00:26:09;;;;;;;2.50;1.00;;;;;;;14.64;49.11;99176.09;126642;1101;102979;-81
2021/05/22 00:28:57;;;;;;;6.07;1.00;;;;;;;14.62;49.80;99166.64;126379;1101;103027;-82
2021/05/22 00:31:44;;;;;;;2.17;1.20;;;;;;;14.57;49.50;99163.48;126626;1101;103096;-82
2021/05/22 00:34:33;;;;;;;2.20;1.10;;;;;;;14.53;50.32;99162.81;126351;1101;102962;-81
2021/05/22 00:37:21;;;;;;;1.50;0.90;;;;;;;14.48;50.50;99176.25;126629;1101;102930;-81
2021/05/22 00:40:09;;;;;;;;;;;;;;;14.44;50.51;99185.27;126600;1101;103030;-81
2021/05/22 00:42:57;;;;;;;;;;;;;;;14.39;50.72;99176.83;126529;1101;102961;-81
2021/05/22 00:45:45;;;;;;;3.20;1.10;;;;;;;14.33;51.03;99177.20;126592;1101;103087;-81
2021/05/22 00:48:33;;;;;;;3.63;1.20;;;;;;;14.29;51.26;99180.97;126562;1101;102927;-81
2021/05/22 00:51:21;;;;;;;2.07;1.20;;;;;;;14.26;51.36;99175.09;126508;1101;102996;-81
2021/05/22 00:54:08;;;;;;;1.83;1.00;;;;;;;14.25;51.50;99189.14;126600;1101;102925;-81
2021/05/22 00:56:57;;;;;;;2.30;1.00;;;;;;;14.21;52.57;99194.59;126571;1101;102933;-81
2021/05/22 00:59:45;;;;;;;1.80;0.90;;;;;;;14.17;52.16;99192.23;126643;1101;100866;-82
2021/05/22 01:02:34;;;;;;;0.80;0.73;;;;;;;14.12;52.62;99195.16;126645;1101;101935;-82
2021/05/22 01:05:22;;;;;;;2.67;0.90;;;;;;;14.06;52.76;99215.69;126318;1096;103000;-82
2021/05/22 01:08:17;;;;;;;1.23;0.90;;;;;;;14.01;52.63;99207.27;126510;1101;103198;-82
2021/05/22 01:11:31;;;;;;;0.80;0.60;;;;;;;13.95;53.58;99197.15;126477;1101;102954;-82
2021/05/22 01:14:26;;;;;;;1.20;0.70;;;;;;;13.86;53.40;99202.05;126559;1101;103144;-81
2021/05/22 01:17:18;;;;;;;1.27;0.80;;;;;;;13.84;53.39;99203.08;126523;1101;102926;-81
2021/05/22 01:20:16;;;;;;;1.30;0.70;;;;;;;13.81;53.63;99200.63;126575;1101;103028;-81
2021/05/22 01:23:10;;;;;;;1.08;0.80;;;;;;;13.78;53.69;99206.06;126598;1101;101843;-81
2021/05/22 01:25:58;;;;;;;1.53;0.77;;;;;;;13.74;53.84;99194.09;126485;1101;102951;-82
2021/05/22 01:28:46;;;;;;;1.30;0.83;;;;;;;13.70;54.29;99196.06;126617;1101;102955;-81
2021/05/22 01:31:35;;;;;;;1.20;0.93;;;;;;;13.67;53.96;99193.64;126559;1101;103068;-81
2021/05/22 01:34:23;;;;;;;0.80;0.80;;;;;;;13.68;53.92;99194.48;126560;1101;103426;-81
2021/05/22 01:37:11;;;;;;;2.25;0.80;;;;;;;13.64;54.02;99182.48;126540;1101;101442;-81
2021/05/22 01:39:59;;;;;;;2.83;0.90;;;;;;;13.61;54.53;99189.59;126567;1101;103066;-82
2021/05/22 01:42:46;;;;;;;0.90;0.70;;;;;;;13.56;54.50;99182.96;126591;1101;102952;-80
2021/05/22 01:45:44;;;;;;;1.97;0.90;;;;;;;13.52;54.68;99184.09;126510;1101;102932;-82
2021/05/22 01:48:32;;;;;;;3.37;0.80;;;;;;;13.47;54.48;99178.30;126501;1101;102926;-81
2021/05/22 01:51:23;;;;;;;1.90;0.73;;;;;;;13.45;55.00;99186.22;126546;1096;103087;-80
2021/05/22 01:54:41;;;;;;;1.33;0.80;;;;;;;13.41;55.15;99192.59;126399;1101;102931;-81
2021/05/22 01:57:34;;;;;;;1.10;0.80;;;;;;;13.36;55.60;99193.81;126514;1101;103534;-80
2021/05/22 02:00:22;;;;;;;2.87;0.70;;;;;;;13.32;55.93;99189.70;126623;1101;101900;-82
2021/05/22 02:03:35;;;;;;;2.07;0.90;;;;;;;13.26;56.13;99194.34;126481;1101;102944;-80
2021/05/22 02:06:26;;;;;;;5.13;1.17;;;;;;;13.18;56.82;99188.73;126626;1101;102939;-80
2021/05/22 02:09:15;;;;;;;1.27;0.70;;;;;;;13.12;56.86;99199.55;126548;1101;102969;-80
2021/05/22 02:12:06;;;;;;;1.37;0.90;;;;;;;13.04;57.40;99199.14;126615;1101;100880;-83
2021/05/22 02:14:55;;;;;;;5.73;1.40;;;;;;;12.97;57.86;99195.22;126352;1101;102988;-80
2021/05/22 02:17:46;;;;;;;2.90;1.30;;;;;;;12.90;58.58;99197.33;126468;1101;103083;-81
2021/05/22 02:20:34;;;;;;;2.47;1.20;;;;;;;12.85;58.44;99188.91;126535;1101;102960;-82
2021/05/22 02:23:23;;;;;;;1.53;1.00;;;;;;;12.81;58.77;99192.64;126527;1101;103693;-81
2021/05/22 02:26:12;;;;;;;1.73;1.20;;;;;;;12.77;58.96;99191.14;126557;1101;102962;-81
2021/05/22 02:29:00;;;;;;;4.03;1.50;;;;;;;12.74;59.24;99199.14;126335;1101;101900;-81
2021/05/22 02:31:51;;;;;;;4.43;1.60;;;;;;;12.70;60.03;99195.02;126592;1101;103165;-81
2021/05/22 02:34:50;;;;;;;4.13;1.40;;;;;;;12.63;59.84;99184.08;126507;1101;102935;-81
2021/05/22 02:37:39;;;;;;;6.00;1.80;;;;;;;12.59;60.37;99174.73;126344;1101;103010;-81
2021/05/22 02:40:29;;;;;;;2.13;1.53;;;;;;;12.56;60.94;99172.27;126556;1101;102952;-81
2021/05/22 02:43:17;;;;;;;1.80;1.40;;;;;;;12.52;60.56;99175.99;126615;1101;102269;-81
2021/05/22 02:46:05;;;;;;;3.30;1.67;;;;;;;12.48;61.26;99184.95;126411;1101;103553;-82
2021/05/22 02:48:56;;;;;;;2.27;1.50;;;;;;;12.45;61.27;99186.91;126563;1101;102975;-81
2021/05/22 02:51:48;;;;;;;2.33;1.53;;;;;;;12.40;61.61;99187.17;126564;1101;102833;-81
2021/05/22 02:54:40;;;;;;;2.87;1.50;;;;;;;12.38;61.90;99189.84;126524;1101;103177;-80
2021/05/22 02:57:29;;;;;;;2.03;1.60;;;;;;;12.34;62.00;99196.18;126597;1101;100876;-81
2021/05/22 03:00:19;;;;;;;2.87;1.57;;;;;;;12.31;62.24;99188.52;126573;1101;103483;-80
2021/05/22 03:03:08;;;;;;;3.43;1.83;;;;;;;12.30;62.83;99201.67;126589;1101;102955;-81
2021/05/22 03:05:59;;;;;;;4.83;1.67;;;;;;;12.28;62.66;99219.22;126480;1101;102965;-80
2021/05/22 03:08:49;;;;;;;2.77;1.80;;;;;;;12.25;62.58;99215.01;126590;1101;103096;-83
2021/05/22 03:11:37;;;;;;;3.43;1.53;;;;;;;12.23;63.05;99226.48;126579;1101;103019;-81
2021/05/22 03:14:25;;;;;;;2.63;1.43;;;;;;;12.20;63.13;99224.02;126579;1101;103118;-81
2021/05/22 03:17:13;;;;;;;4.60;1.50;;;;;;;12.21;63.11;99230.92;126579;1096;103162;-81
2021/05/22 03:20:04;;;;;;;3.23;1.90;;;;;;;12.22;63.43;99227.41;126257;1101;103016;-81
2021/05/22 03:22:52;;;;;;;2.60;1.67;;;;;;;12.23;64.08;99219.48;126531;1101;101128;-81
2021/05/22 03:25:43;;;;;;;5.57;1.90;;;;;;;12.23;63.37;99226.48;126497;1101;103123;-81
2021/05/22 03:28:30;;;;;;;3.87;1.70;;;;;;;12.23;63.98;99227.33;126557;1101;102976;-81
2021/05/22 03:31:25;;;;;;;5.47;2.03;;;;;;;12.21;64.11;99233.54;126527;1101;103030;-81
2021/05/22 03:34:13;;;;;;;3.87;2.17;;;;;;;12.23;64.25;99226.48;126626;1101;102965;-81
2021/05/22 03:37:00;;;;;;;3.00;1.83;;;;;;;12.21;63.81;99238.77;126604;1101;102998;-81
2021/05/22 03:39:48;;;;;;;;;;;;;;;12.21;64.09;99225.70;126557;1101;101721;-81
2021/05/22 03:42:36;;;;;;;2.30;1.60;;;;;;;12.21;64.27;99226.57;126537;1101;102934;-81
2021/05/22 03:45:23;;;;;;;3.20;2.00;;;;;;;12.25;64.38;99229.85;126570;1101;103033;-81
2021/05/22 03:48:11;;;;;;;3.90;1.57;;;;;;;12.25;64.05;99241.16;126537;1095;103028;-81
2021/05/22 03:50:59;;;;;;;2.93;2.00;;;;;;;12.30;64.09;99228.66;126588;1101;102949;-81
2021/05/22 03:53:47;;;;;;;3.00;1.60;;;;;;;12.38;64.07;99225.61;126498;1101;103091;-81
2021/05/22 03:56:35;;;;;;;2.90;1.57;;;;;;;12.45;63.68;99228.75;126515;1101;103115;-80
2021/05/22 03:59:23;;;;;;;4.53;1.70;;;;;;;12.52;63.73;99230.92;126662;1101;102982;-80
2021/05/22 04:02:11;;;;;;;3.80;1.70;;;;;;;12.55;63.41;99241.20;126493;1101;103561;-81
2021/05/22 04:04:58;;;;;;;5.80;2.00;;;;;;;12.60;63.50;99230.50;126598;1101;102979;-80
2021/05/22 04:07:46;;;;;;;3.73;1.70;;;;;;;12.63;63.08;99219.86;126565;1101;103080;-81
2021/05/22 04:10:34;;;;;;;4.00;1.63;;;;;;;12.65;62.96;99216.22;126516;1101;102985;-81
2021/05/22 04:13:22;;;;;;;;;;;;;;;12.70;63.10;99227.27;126573;1101;104113;-81
2021/05/22 04:16:10;;;;;;;2.37;1.60;;;;;;;12.77;63.06;99221.70;126579;1097;102965;-81
2021/05/22 04:18:57;;;;;;;2.73;1.50;;;;;;;12.81;63.01;99217.97;126282;1101;102982;-81
2021/05/22 04:21:45;;;;;;;4.57;1.57;;;;;;;12.87;62.71;99222.84;126610;1096;102964;-81
2021/05/22 04:24:35;;;;;;;3.73;1.50;;;;;;;12.94;62.58;99224.19;126534;1096;102757;-81
2021/05/22 04:27:23;;;;;;;3.10;1.77;;;;;;;12.96;62.05;99217.09;126627;1101;101998;-81
2021/05/22 04:30:12;;;;;;;2.60;1.47;;;;;;;13.01;62.23;99215.03;126568;1101;101454;-81
2021/05/22 04:33:00;;;;;;;1.97;1.40;;;;;;;13.06;62.31;99214.75;126592;1101;103014;-80
2021/05/22 04:35:47;;;;;;;4.10;1.57;;;;;;;13.12;62.00;99219.66;126543;1101;103155;-80
2021/05/22 04:38:35;;;;;;;2.57;1.53;;;;;;;13.20;61.93;99226.14;126204;1101;103023;-80
2021/05/22 04:41:23;;;;;;;2.23;1.50;;;;;;;13.29;61.79;99227.39;126531;1101;103000;-80
2021/05/22 04:44:11;;;;;;;2.47;1.40;;;;;;;13.36;61.57;99235.71;126556;1101;103102;-80
2021/05/22 04:46:59;;;;;;;4.20;1.70;;;;;;;13.45;61.53;99240.38;126534;1101;102955;-80
2021/05/22 04:49:47;;;;;;;2.73;1.40;;;;;;;13.49;61.25;99221.80;126539;1101;104613;-81
2021/05/22 04:52:36;;;;;;;2.63;1.30;;;;;;;13.58;61.17;99225.63;126542;1101;103069;-81
2021/05/22 04:55:24;;;;;;;2.85;1.45;;;;;;;13.67;60.81;99225.08;126510;1101;102952;-81
2021/05/22 04:58:12;;;;;;;1.40;1.10;;;;;;;13.74;60.47;99215.89;126604;1101;103418;-81
2021/05/22 05:00:59;;;;;;;;;;;;;;;13.79;60.13;99219.06;126590;1101;103062;-81
2021/05/22 05:03:48;;;;;;;2.48;1.60;;;;;;;13.80;60.03;99231.23;126589;1101;102933;-81
2021/05/22 05:06:36;;;;;;;2.00;1.23;;;;;;;13.85;60.31;99255.41;126602;1101;103416;-82
2021/05/22 05:09:25;;;;;;;3.97;1.00;;;;;;;13.87;60.06;99248.28;126575;1101;101458;-81
2021/05/22 05:12:14;;;;;;;2.53;0.83;;;;;;;13.93;59.91;99260.16;126537;1101;103086;-80
2021/05/22 05:15:04;;;;;;;2.53;1.37;;;;;;;13.92;59.89;99255.86;126595;1101;102921;-81
2021/05/22 05:17:51;;;;;;;3.27;1.03;;;;;;;13.90;59.77;99247.25;126625;1101;102967;-80
2021/05/22 05:20:39;;;;;;;3.27;1.47;;;;;;;13.91;59.89;99248.93;126540;1101;102949;-81
2021/05/22 05:23:27;;;;;;;2.53;1.20;;;;;;;13.92;60.33;99229.64;126585;1101;101693;-81
2021/05/22 05:26:16;;;;;;;2.23;1.23;;;;;;;13.99;59.74;99236.18;126513;1101;102920;-81
2021/05/22 05:29:04;;;;;;;3.40;1.23;;;;;;;14.07;59.36;99228.70;126493;1095;101866;-80
2021/05/22 05:31:53;;;;;;;2.33;1.57;;;;;;;14.26;59.32;99220.51;126514;1101;102978;-84
2021/05/22 05:34:41;;;;;;;2.20;1.50;;;;;;;14.56;59.23;99214.28;126508;1101;102927;-82
2021/05/22 05:37:29;;;;;;;3.60;1.40;;;;;;;15.30;58.19;99221.59;126455;1096;103003;-80
2021/05/22 05:40:21;;;;;;;2.80;1.50;;;;;;;16.09;56.68;99212.60;126493;1101;103057;-79
2021/05/22 05:43:11;;;;;;;1.57;1.10;;;;;;;16.95;54.91;99225.66;126631;1101;102947;-80
2021/05/22 05:45:59;;;;;;;3.13;1.20;;;;;;;16.97;53.14;99221.95;126524;1095;103513;-80
2021/05/22 05:48:46;;;;;;;2.63;1.63;;;;;;;16.74;53.10;99212.30;126557;1101;103113;-80
2021/05/22 05:51:34;;;;;;;;;;;;;;;16.47;53.30;99213.31;126581;1101;103023;-80
2021/05/22 05:54:22;;;;;;;2.83;1.10;;;;;;;16.21;53.60;99214.37;126616;1101;103497;-80
2021/05/22 05:57:10;;;;;;;3.63;1.20;;;;;;;15.98;53.90;99223.91;126620;1101;102037;-80
2021/05/22 06:00:00;;;;;;;2.70;0.97;;;;;;;15.84;53.90;99231.91;126638;1101;102932;-80
2021/05/22 06:02:48;;;;;;;1.10;0.97;;;;;;;15.66;54.50;99228.77;126554;1101;103037;-80
2021/05/22 06:05:36;;;;;;;2.47;1.40;;;;;;;15.51;54.49;99233.26;126512;1101;102779;-79
2021/05/22 06:08:25;;;;;;;5.57;1.80;;;;;;;15.53;54.83;99235.78;126583;1101;102952;-79
2021/05/22 06:11:17;;;;;;;3.90;1.30;;;;;;;15.90;54.64;99229.68;126440;1101;102952;-81
2021/05/22 06:14:19;;;;;;;3.63;1.30;;;;;;;16.22;53.48;99227.41;126609;1101;102948;-81
2021/05/22 06:17:08;;;;;;;2.30;1.57;;;;;;;16.36;53.51;99225.59;126462;1101;103036;-79
2021/05/22 06:19:55;;;;;;;;;;;;;;;16.41;52.81;99220.83;126637;1101;102917;-79
2021/05/22 06:22:46;;;;;;;3.10;0.97;;;;;;;16.25;53.25;99216.66;126439;1101;102946;-80
2021/05/22 06:25:34;;;;;;;4.03;1.40;;;;;;;16.29;53.51;99219.91;126468;1097;103009;-79
2021/05/22 06:28:22;;;;;;;1.90;1.07;;;;;;;16.54;53.09;99211.09;126439;1101;103531;-81
2021/05/22 06:31:09;;;;;;;2.43;1.30;;;;;;;17.05;52.34;99216.09;126592;1101;102751;-80
2021/05/22 06:33:57;;;;;;;2.20;1.20;;;;;;;17.04;51.71;99209.15;126473;1101;102991;-81
2021/05/22 06:36:45;;;;;;;2.90;1.00;;;;;;;18.08;51.09;99223.07;126321;1101;102979;-81
2021/05/22 06:39:32;;;;;;;1.50;1.00;;;;;;;19.72;48.77;99227.11;126470;1101;103153;-81
2021/05/22 06:42:21;;;;;;;1.43;1.00;;;;;;;20.78;46.14;99230.07;126426;1101;102953;-81
2021/05/22 06:45:16;;;;;;;1.47;0.97;;;;;;;21.44;45.57;99218.75;126470;1096;102779;-81
2021/05/22 06:48:08;;;;;;;3.03;0.90;;;;;;;21.33;44.30;99224.21;126516;1101;103134;-79
2021/05/22 06:50:56;;;;;;;1.73;1.00;;;;;;;21.04;43.02;99234.84;126601;1101;102940;-80
2021/05/22 06:53:44;;;;;;;4.10;1.00;;;;;;;20.29;43.04;99220.38;126679;1095;102954;-79
2021/05/22 06:56:33;;;;;;;1.80;1.00;;;;;;;19.61;44.86;99235.14;126583;1101;102933;-81
2021/05/22 06:59:21;;;;;;;2.80;1.20;;;;;;;19.30;45.53;99227.13;126458;1101;103091;-80
2021/05/22 07:02:09;;;;;;;5.60;1.27;;;;;;;19.29;45.49;99236.03;126649;1101;102975;-82
2021/05/22 07:04:57;;;;;;;3.63;1.20;;;;;;;19.04;45.79;99230.30;126526;1101;102952;-80
2021/05/22 07:07:45;;;;;;;2.23;1.10;;;;;;;18.66;46.38;99223.69;126511;1101;100704;-79
2021/05/22 07:10:33;;;;;;;1.20;0.90;;;;;;;18.35;46.90;99217.41;126424;1101;102985;-79
2021/05/22 07:13:22;;;;;;;3.13;1.10;;;;;;;18.20;47.63;99226.55;126579;1101;102978;-79
2021/05/22 07:16:10;;;;;;;4.67;1.43;;;;;;;17.96;47.74;99240.73;126530;1101;102768;-79
2021/05/22 07:18:57;;;;;;;2.27;0.90;;;;;;;17.73;48.41;99241.66;126583;1101;103017;-80
2021/05/22 07:21:45;;;;;;;3.57;1.30;;;;;;;17.50;48.63;99244.25;126472;1101;102920;-81
2021/05/22 07:24:33;;;;;;;3.60;0.97;;;;;;;17.19;48.66;99244.88;126519;1101;102965;-81
2021/05/22 07:27:22;;;;;;;1.30;0.90;;;;;;;17.05;49.25;99237.17;126507;1097;103047;-80
2021/05/22 07:30:11;;;;;;;7.07;1.10;;;;;;;16.88;49.66;99234.03;126517;1101;103004;-80
2021/05/22 07:33:01;;;;;;;2.80;1.50;;;;;;;16.76;49.97;99232.29;126404;1101;101437;-80
2021/05/22 07:35:48;;;;;;;2.47;1.40;;;;;;;16.52;50.34;99234.06;126573;1101;101904;-81
2021/05/22 07:38:41;;;;;;;1.47;1.10;;;;;;;16.48;50.70;99225.52;126567;1101;102958;-81
2021/05/22 07:41:30;;;;;;;3.03;1.60;;;;;;;16.48;50.98;99222.05;126532;1101;103157;-80
2021/05/22 07:44:18;;;;;;;4.67;1.93;;;;;;;16.53;51.13;99220.78;126479;1095;104133;-81
2021/05/22 07:47:09;;;;;;;2.83;1.40;;;;;;;16.58;51.15;99226.55;126477;1101;103000;-82
2021/05/22 07:49:57;;;;;;;2.60;1.20;;;;;;;16.62;51.08;99213.99;126580;1101;102990;-82
2021/05/22 07:52:44;;;;;;;2.30;1.27;;;;;;;16.74;50.99;99214.92;126446;1101;101853;-81
2021/05/22 07:55:32;;;;;;;2.73;1.27;;;;;;;16.82;51.32;99220.45;126513;1101;102924;-81
2021/05/22 07:58:20;;;;;;;1.97;1.20;;;;;;;16.80;50.76;99212.67;126501;1101;102957;-81
2021/05/22 08:01:08;;;;;;;3.50;1.73;;;;;;;16.94;51.03;99209.02;126526;1101;102944;-79
2021/05/22 08:03:56;;;;;;;1.97;1.20;;;;;;;17.18;50.69;99207.16;126601;1101;102933;-80
2021/05/22 08:06:43;;;;;;;;;;;;;;;17.37;50.00;99227.68;126383;1101;103005;-80
2021/05/22 08:09:31;;;;;;;2.95;1.85;;;;;;;17.39;49.94;99220.49;126578;1095;102753;-80
2021/05/22 08:12:21;;;;;;;2.73;1.20;;;;;;;17.38;49.78;99221.45;126547;1101;102904;-80
2021/05/22 08:15:10;;;;;;;3.00;1.30;;;;;;;17.31;49.99;99225.52;126575;1101;102966;-80
2021/05/22 08:17:58;;;;;;;4.17;1.93;;;;;;;17.24;50.04;99221.69;126529;1101;102971;-80
2021/05/22 08:20:46;;;;;;;1.97;1.10;;;;;;;17.09;50.11;99226.31;126587;1101;103237;-82
2021/05/22 08:23:34;;;;;;;2.60;1.07;;;;;;;17.00;50.53;99228.78;126511;1096;103030;-80
2021/05/22 08:26:23;;;;;;;3.10;1.20;;;;;;;16.85;50.66;99228.95;126592;1101;103005;-82
2021/05/22 08:29:32;;;;;;;1.97;1.20;;;;;;;16.68;50.92;99225.89;126505;1101;102926;-81
2021/05/22 08:32:20;;;;;;;2.90;1.10;;;;;;;16.44;51.13;99242.49;126524;1101;102925;-81
2021/05/22 08:35:09;;;;;;;1.87;1.10;;;;;;;16.21;51.47;99249.41;126501;1101;103043;-82
2021/05/22 08:37:57;;;;;;;1.85;1.30;;;;;;;16.09;52.39;99247.64;126427;1101;103013;-82
2021/05/22 08:40:45;;;;;;;2.37;1.13;;;;;;;16.04;52.91;99228.72;126553;1101;102947;-81
2021/05/22 08:43:33;;;;;;;2.60;1.40;;;;;;;15.98;53.59;99229.16;126543;1101;101782;-81
2021/05/22 08:46:21;;;;;;;2.73;1.20;;;;;;;15.86;53.64;99240.53;126530;1096;101004;-82
2021/05/22 08:49:10;;;;;;;3.10;1.10;;;;;;;15.76;53.98;99237.69;126479;1095;103015;-81
2021/05/22 08:51:58;;;;;;;4.47;1.50;;;;;;;15.70;55.24;99246.84;126512;1101;103192;-81
2021/05/22 08:54:46;;;;;;;5.70;1.20;;;;;;;15.62;55.39;99249.17;126476;1101;102741;-81
2021/05/22 08:57:35;;;;;;;3.03;1.60;;;;;;;15.55;55.60;99247.86;126527;1101;101786;-81
2021/05/22 09:00:27;;;;;;;2.03;1.30;;;;;;;15.50;55.78;99249.97;126528;1101;102952;-82
2021/05/22 09:03:15;;;;;;;2.67;1.47;;;;;;;15.42;56.96;99249.63;126425;1101;102969;-81
2021/05/22 09:06:03;;;;;;;2.10;1.40;;;;;;;15.38;56.67;99240.28;126536;1101;103006;-81
2021/05/22 09:09:03;;;;;;;3.97;1.60;;;;;;;15.33;58.14;99242.39;126431;1094;102965;-82
2021/05/22 09:11:52;;;;;;;3.37;1.20;;;;;;;15.27;58.89;99245.44;126532;1101;103023;-82
2021/05/22 09:14:47;;;;;;;2.33;1.50;;;;;;;15.20;58.59;99244.15;126514;1101;104166;-82
2021/05/22 09:17:38;;;;;;;2.33;1.60;;;;;;;15.06;59.79;99243.28;126523;1101;102925;-81
2021/05/22 09:20:35;;;;;;;2.27;1.60;;;;;;;14.95;60.04;99248.41;126380;1101;103115;-82
2021/05/22 09:23:25;;;;;;;;;;;;;;;14.81;60.44;99245.84;126551;1101;102965;-81
2021/05/22 09:26:15;;;;;;;5.03;1.80;;;;;;;14.65;61.80;99255.66;126561;1101;102958;-82
2021/05/22 09:29:03;;;;;;;2.60;1.93;;;;;;;14.54;61.53;99247.63;126528;1101;103048;-81
2021/05/22 09:31:50;;;;;;;4.57;2.70;;;;;;;14.47;62.45;99253.27;126498;1101;102921;-82
2021/05/22 09:34:38;;;;;;;2.90;1.90;;;;;;;14.41;62.82;99248.39;126502;1101;104087;-82
2021/05/22 09:37:27;;;;;;;2.77;2.10;;;;;;;14.36;62.81;99250.48;126527;1101;102780;-81
2021/05/22 09:40:22;;;;;;;6.87;2.63;;;;;;;14.35;63.73;99248.77;126579;1101;103102;-81
2021/05/22 09:43:10;;;;;;;3.30;2.00;;;;;;;14.30;64.22;99250.84;126705;1097;102971;-81
2021/05/22 09:45:59;;;;;;;3.10;1.97;;;;;;;14.22;64.63;99250.50;126600;1101;102953;-81
2021/05/22 09:48:51;;;;;;;3.03;1.90;;;;;;;14.15;65.12;99250.02;126519;1101;102394;-81
2021/05/22 09:51:55;;;;;;;3.00;1.83;;;;;;;14.11;65.99;99258.18;126526;1101;102966;-81
2021/05/22 09:54:45;;;;;;;3.87;2.30;;;;;;;14.04;65.79;99254.27;126622;1101;103004;-81
2021/05/22 09:57:35;;;;;;;2.43;1.80;;;;;;;14.00;65.86;99263.23;126535;1095;103026;-81
2021/05/22 10:00:27;;;;;;;2.80;1.80;;;;;;;13.98;65.90;99259.87;126583;1095;103004;-81
2021/05/22 10:03:22;;;;;;;2.50;1.57;;;;;;;13.96;66.04;99256.50;126533;1101;104371;-81
2021/05/22 10:06:13;;;;;;;3.20;1.60;;;;;;;13.92;65.87;99250.61;126631;1101;102990;-81
2021/05/22 10:09:10;;;;;;;3.10;1.77;;;;;;;13.86;66.12;99254.46;126596;1101;102797;-81
2021/05/22 10:12:15;;;;;;;2.30;1.67;;;;;;;13.76;66.13;99249.87;126583;1101;101232;-81
2021/05/22 10:15:04;;;;;;;3.43;1.90;;;;;;;13.68;66.46;99242.48;126705;1101;102970;-81
2021/05/22 10:17:52;;;;;;;2.60;1.67;;;;;;;13.64;66.94;99240.12;126532;1101;103361;-81
2021/05/22 10:20:39;;;;;;;3.33;2.07;;;;;;;13.62;67.05;99232.35;126601;1101;103141;-81
2021/05/22 10:23:28;;;;;;;4.23;2.20;;;;;;;13.60;67.37;99236.84;126531;1101;102974;-81
2021/05/22 10:26:16;;;;;;;4.70;2.10;;;;;;;13.63;67.47;99238.44;126687;1096;102988;-81
2021/05/22 10:29:05;;;;;;;6.20;2.60;;;;;;;13.66;67.80;99227.80;126552;1101;101804;-81
2021/05/22 10:31:54;;;;;;;3.73;1.90;;;;;;;13.63;67.43;99228.80;126575;1101;102009;-82
2021/05/22 10:34:44;;;;;;;3.60;2.30;;;;;;;13.66;68.04;99228.64;126481;1101;102979;-83
2021/05/22 10:37:36;;;;;;;3.73;2.33;;;;;;;13.65;67.88;99237.44;126604;1101;103085;-82
2021/05/22 10:40:43;;;;;;;2.43;2.13;;;;;;;13.59;68.08;99217.66;126606;1101;103065;-83
2021/05/22 10:43:46;;;;;;;7.20;2.93;;;;;;;13.61;68.36;99217.57;126547;1101;103090;-83
2021/05/22 10:47:11;;;;;;;5.83;2.50;;;;;;;13.60;68.14;99213.27;126552;1101;102931;-82
2021/05/22 10:50:02;;;;;;;3.87;2.43;;;;;;;13.61;68.50;99204.47;126610;1101;103024;-82
2021/05/22 10:53:21;;;;;;;3.80;2.57;;;;;;;13.63;69.06;99202.59;126511;1101;102926;-82
2021/05/22 10:56:17;;;;;;;3.57;2.80;;;;;;;13.58;68.79;99208.13;126632;1101;100930;-82
2021/05/22 10:59:09;;;;;;;6.43;3.00;;;;;;;13.59;69.36;99206.34;126504;1101;102989;-82
2021/05/22 11:01:59;;;;;;;3.43;2.60;;;;;;;13.59;69.33;99193.25;126547;1101;103122;-82
2021/05/22 11:04:48;;;;;;;5.60;3.30;;;;;;;13.62;69.75;99198.30;126510;1101;102979;-82
2021/05/22 11:07:35;;;;;;;5.50;3.00;;;;;;;13.60;69.94;99187.07;126568;1101;102990;-83
2021/05/22 11:10:39;;;;;;;5.10;3.03;;;;;;;13.59;69.93;99185.39;126533;1097;102900;-82
2021/05/22 11:13:30;;;;;;;3.63;2.93;;;;;;;13.65;70.22;99181.57;126583;1101;102991;-82
2021/05/22 11:16:33;;;;;;;4.47;3.40;;;;;;;13.64;70.60;99172.84;126564;1100;102959;-82
2021/05/22 11:19:32;;;;;;;5.67;3.93;;;;;;;13.71;70.70;99175.94;126542;1095;102975;-82
2021/05/22 11:22:20;;;;;;;5.27;3.50;;;;;;;13.73;70.80;99171.45;126606;1101;102979;-82
2021/05/22 11:25:09;;;;;;;8.33;3.70;;;;;;;13.75;71.40;99169.56;126562;1097;103100;-82
2021/05/22 11:28:02;;;;;;;7.40;3.33;;;;;;;13.72;71.36;99156.66;126634;1101;101719;-82
2021/05/22 11:30:54;;;;;;;5.03;3.07;;;;;;;13.65;71.08;99145.73;126539;1101;103091;-82
2021/05/22 11:33:41;;;;;;;6.17;3.17;;;;;;;13.74;71.30;99150.38;126589;1101;102950;-82
2021/05/22 11:36:29;;;;;;;6.00;3.20;;;;;;;13.79;70.97;99150.92;126563;1101;102931;-82
2021/05/22 11:39:52;;;;;;;5.70;3.10;;;;;;;13.82;70.84;99139.41;126600;1101;100700;-82
2021/05/22 11:42:41;;;;;;;4.43;3.10;;;;;;;13.81;70.81;99137.72;126247;1104;102979;-82
2021/05/22 11:45:32;;;;;;;3.83;3.00;;;;;;;13.77;70.43;99137.08;126106;1104;103377;-82
2021/05/22 11:48:30;;;;;;;4.53;3.20;;;;;;;13.79;70.90;99135.20;126161;1104;102929;-82
2021/05/22 11:51:25;;;;;;;;;;;;;;;13.74;70.64;99137.28;126191;1104;103259;-82
2021/05/22 11:54:15;;;;;;;3.33;2.57;;;;;;;13.66;70.33;99134.31;126201;1104;101128;-82
2021/05/22 11:57:16;;;;;;;3.63;2.40;;;;;;;13.59;69.79;99143.47;126129;1099;103381;-82
2021/05/22 12:00:09;;;;;;;5.60;3.10;;;;;;;13.48;70.08;99143.31;126172;1100;102156;-82
2021/05/22 12:03:01;;;;;;;4.60;3.00;;;;;;;13.37;69.62;99153.59;126197;1104;102965;-82
2021/05/22 12:05:50;;;;;;;3.17;2.53;;;;;;;13.26;70.17;99141.13;126197;1099;102933;-82
2021/05/22 12:08:38;;;;;;;7.03;3.43;;;;;;;13.26;70.75;99146.38;126179;1098;100502;-82
2021/05/22 12:11:29;;;;;;;3.87;3.27;;;;;;;13.18;70.82;99149.47;126067;1104;103060;-82
2021/05/22 12:14:17;;;;;;;4.10;3.07;;;;;;;13.08;70.88;99153.52;126137;1104;102933;-82
2021/05/22 12:17:06;;;;;;;5.80;3.50;;;;;;;13.00;71.24;99147.91;126364;1101;102974;-82
2021/05/22 12:19:55;;;;;;;6.17;3.47;;;;;;;12.93;71.42;99149.23;126565;1101;103067;-82
2021/05/22 12:22:42;;;;;;;6.53;3.90;;;;;;;12.88;72.04;99146.86;126576;1101;102934;-83
2021/05/22 12:25:30;;;;;;;;;;;;;;;12.87;72.07;99158.26;126612;1101;102971;-82
2021/05/22 12:28:19;;;;;;;4.07;3.53;;;;;;;12.83;72.48;99158.53;126544;1101;103008;-83
2021/05/22 12:31:07;;;;;;;5.13;3.60;;;;;;;12.81;72.58;99163.02;126588;1101;102956;-83
2021/05/22 12:34:01;;;;;;;5.60;3.60;;;;;;;12.80;73.12;99161.34;126586;1101;103094;-83
2021/05/22 12:36:55;;;;;;;5.47;4.07;;;;;;;12.73;73.29;99173.91;126583;1101;102854;-84
2021/05/22 12:39:51;;;;;;;5.27;3.63;;;;;;;12.68;73.29;99174.19;126534;1101;102972;-83
2021/05/22 12:42:40;;;;;;;6.73;3.83;;;;;;;12.63;73.56;99173.62;126537;1101;103245;-82
2021/05/22 12:45:35;;;;;;;4.03;3.33;;;;;;;12.57;73.94;99184.44;126602;1101;103632;-84
2021/05/22 12:48:25;;;;;;;6.83;3.50;;;;;;;12.57;74.33;99179.21;126494;1101;102978;-83
2021/05/22 12:51:30;;;;;;;4.13;3.27;;;;;;;12.57;74.80;99176.59;126624;1101;103002;-82
2021/05/22 12:54:42;;;;;;;5.57;4.03;;;;;;;12.59;74.13;99169.50;126301;1102;102984;-82
2021/05/22 12:57:36;;;;;;;6.13;3.37;;;;;;;12.59;74.50;99172.12;126242;1102;103003;-82
2021/05/22 13:00:31;;;;;;;7.37;4.40;;;;;;;12.55;74.50;99165.35;126541;1101;103020;-82
2021/05/22 13:03:39;;;;;;;6.90;3.77;;;;;;;12.50;75.25;99161.33;126242;1101;103062;-81
2021/05/22 13:06:30;;;;;;;6.23;4.13;;;;;;;12.52;75.28;99159.45;126527;1101;103064;-82